| time (UTC) | temp C | wind direction | speed KPH | gust KPH | rain 1hr cm | rain 24hr cm | rain mn cm | humidity % | barometer mb |
| 20260906145443 | 30 | 139 | 1.6 | 1.6 | 0.00 | 0.00 | 0.00 | 72 | 1012.0 |
| 20260906144932 | 30 | 156 | 1.6 | 3.2 | 0.00 | 0.00 | 0.00 | 73 | 1011.9 |
| 20260906144427 | 29 | 108 | 1.6 | 1.6 | 0.00 | 0.00 | 0.00 | 73 | 1011.9 |
| 20260906143923 | 28 | 167 | 1.6 | 3.2 | 0.00 | 0.00 | 0.00 | 75 | 1011.8 |
| 20260906143418 | 28 | 30 | 4.8 | 4.8 | 0.00 | 0.00 | 0.00 | 73 | 1011.7 |
| 20260906142914 | 28 | 190 | 1.6 | 3.2 | 0.00 | 0.00 | 0.00 | 76 | 1011.6 |
| 20260906142414 | 28 | 119 | 1.6 | 1.6 | 0.00 | 0.00 | 0.00 | 80 | 1011.5 |
| 20260906141914 | 27 | 90 | 0.0 | 0.0 | 0.00 | 0.00 | 0.00 | 80 | 1011.9 |
| 20260906141408 | 27 | 81 | 1.6 | 1.6 | 0.00 | 0.00 | 0.00 | 83 | 1011.7 |
| 20260906140907 | 27 | 144 | 4.8 | 8.0 | 0.00 | 0.00 | 0.00 | 84 | 1011.7 |
| 20260906140402 | 27 | 347 | 3.2 | 3.2 | 0.00 | 0.00 | 0.00 | 84 | 1011.9 |
| 20260906135900 | 26 | 218 | 1.6 | 1.6 | 0.00 | 0.00 | 0.00 | 85 | 1011.7 |
| 20260906135354 | 26 | 74 | 0.0 | 0.0 | 0.00 | 0.00 | 0.00 | 87 | 1011.7 |
| 20260906134850 | 26 | 80 | 0.0 | 0.0 | 0.00 | 0.00 | 0.00 | 87 | 1011.9 |
| 20260906134345 | 25 | 113 | 0.0 | 0.0 | 0.00 | 0.00 | 0.00 | 91 | 1011.6 |
| 20260906133841 | 25 | 90 | 0.0 | 1.6 | 0.00 | 0.00 | 0.00 | 92 | 1012.0 |
| 20260906133336 | 25 | 132 | 1.6 | 1.6 | 0.00 | 0.00 | 0.00 | 91 | 1011.9 |
| 20260906132831 | 25 | 81 | 0.0 | 0.0 | 0.00 | 0.00 | 0.00 | 92 | 1011.9 |
| 20260906132321 | 25 | 86 | 0.0 | 0.0 | 0.00 | 0.00 | 0.00 | 93 | 1011.7 |
| 20260906131816 | 24 | 83 | 0.0 | 0.0 | 0.00 | 0.00 | 0.00 | 94 | 1011.7 |
| 20260906131311 | 24 | 89 | 0.0 | 0.0 | 0.00 | 0.00 | 0.00 | 96 | 1011.8 |
| 20260906130807 | 24 | 100 | 0.0 | 0.0 | 0.00 | 0.00 | 0.00 | 96 | 1011.7 |
| 20260906130307 | 23 | 78 | 0.0 | 0.0 | 0.00 | 0.00 | 0.00 | 98 | 1011.8 |
| 20260906125805 | 23 | 104 | 0.0 | 0.0 | 0.00 | 0.00 | 0.00 | 98 | 1011.8 |
| 20260906125306 | 23 | 71 | 0.0 | 0.0 | 0.00 | 0.00 | 0.00 | 99 | 1011.9 |
| 20260906124758 | 23 | 97 | 0.0 | 0.0 | 0.00 | 0.00 | 0.00 | 99 | 1011.7 |
| 20260906124255 | 23 | 85 | 0.0 | 0.0 | 0.00 | 0.00 | 0.00 | 99 | 1011.7 |
| 20260906123753 | 23 | 86 | 0.0 | 0.0 | 0.00 | 0.00 | 0.00 | 99 | 1011.7 |
| 20260906123248 | 23 | 82 | 0.0 | 0.0 | 0.00 | 0.00 | 0.00 | 99 | 1011.6 |
| 20260906122748 | 22 | 97 | 0.0 | 0.0 | 0.00 | 0.00 | 0.00 | 99 | 1011.4 |
| 20260906122243 | 22 | 80 | 0.0 | 0.0 | 0.00 | 0.00 | 0.00 | 99 | 1011.3 |
| 20260906121740 | 22 | 96 | 0.0 | 0.0 | 0.00 | 0.00 | 0.00 | 99 | 1011.3 |
| 20260906121236 | 22 | 79 | 0.0 | 0.0 | 0.00 | 0.00 | 0.00 | 99 | 1011.2 |
| 20260906120731 | 22 | 84 | 0.0 | 0.0 | 0.00 | 0.00 | 0.00 | 99 | 1011.1 |
| 20260906120228 | 22 | 76 | 0.0 | 0.0 | 0.00 | 0.00 | 0.00 | 99 | 1011.1 |
| 20260906115723 | 22 | 88 | 0.0 | 0.0 | 0.00 | 0.00 | 0.00 | 99 | 1011.1 |
| 20260906115218 | 22 | 84 | 0.0 | 0.0 | 0.00 | 0.00 | 0.00 | 99 | 1011.2 |
| 20260906114717 | 22 | 77 | 0.0 | 0.0 | 0.00 | 0.00 | 0.00 | 99 | 1011.1 |
| 20260906114212 | 23 | 81 | 0.0 | 0.0 | 0.00 | 0.00 | 0.00 | 99 | 1010.9 |
| 20260906113708 | 23 | 82 | 0.0 | 0.0 | 0.00 | 0.00 | 0.00 | 99 | 1011.3 |
| 20260906113207 | 23 | 82 | 0.0 | 0.0 | 0.00 | 0.00 | 0.00 | 99 | 1010.9 |
| 20260906112706 | 23 | 74 | 0.0 | 0.0 | 0.00 | 0.00 | 0.00 | 99 | 1011.0 |
| 20260906112203 | 23 | 81 | 0.0 | 0.0 | 0.00 | 0.00 | 0.00 | 99 | 1010.9 |
| 20260906111702 | 23 | 79 | 0.0 | 0.0 | 0.00 | 0.00 | 0.00 | 98 | 1010.8 |
| 20260906111157 | 23 | 89 | 0.0 | 0.0 | 0.00 | 0.00 | 0.00 | 98 | 1010.9 |
| 20260906110652 | 23 | 109 | 1.6 | 1.6 | 0.00 | 0.00 | 0.00 | 98 | 1010.6 |
| 20260906110148 | 23 | 128 | 0.0 | 0.0 | 0.00 | 0.00 | 0.00 | 98 | 1010.6 |
| 20260906105642 | 23 | 121 | 1.6 | 1.6 | 0.00 | 0.00 | 0.00 | 98 | 1010.7 |
| 20260906105138 | 23 | 128 | 1.6 | 1.6 | 0.00 | 0.00 | 0.00 | 98 | 1010.7 |
| 20260906104637 | 23 | 138 | 1.6 | 1.6 | 0.00 | 0.00 | 0.00 | 98 | 1010.9 |
| 20260906104131 | 23 | 81 | 0.0 | 0.0 | 0.00 | 0.00 | 0.00 | 98 | 1010.8 |
| 20260906103629 | 23 | 74 | 0.0 | 0.0 | 0.00 | 0.00 | 0.00 | 98 | 1010.5 |
| 20260906103124 | 23 | 99 | 0.0 | 0.0 | 0.00 | 0.00 | 0.00 | 98 | 1010.7 |
| 20260906102619 | 24 | 84 | 0.0 | 0.0 | 0.00 | 0.00 | 0.00 | 97 | 1010.5 |
| 20260906102114 | 24 | 93 | 0.0 | 0.0 | 0.00 | 0.00 | 0.00 | 97 | 1010.5 |
| 20260906101608 | 24 | 143 | 1.6 | 1.6 | 0.00 | 0.00 | 0.00 | 98 | 1010.7 |
| 20260906101103 | 24 | 141 | 1.6 | 1.6 | 0.00 | 0.00 | 0.00 | 98 | 1010.4 |
| 20260906100558 | 24 | 86 | 0.0 | 1.6 | 0.00 | 0.00 | 0.00 | 98 | 1010.5 |
| 20260906100053 | 25 | 175 | 3.2 | 3.2 | 0.00 | 0.00 | 0.00 | 98 | 1010.4 |
| 20260906095553 | 24 | 73 | 0.0 | 0.0 | 0.00 | 0.00 | 0.00 | 97 | 1010.4 |
| 20260906095048 | 25 | 121 | 1.6 | 1.6 | 0.00 | 0.00 | 0.00 | 98 | 1010.3 |
| 20260906094547 | 24 | 88 | 1.6 | 1.6 | 0.00 | 0.00 | 0.00 | 98 | 1010.5 |
| 20260906094044 | 24 | 198 | 1.6 | 3.2 | 0.00 | 0.00 | 0.00 | 99 | 1010.3 |
| 20260906093539 | 25 | 81 | 0.0 | 0.0 | 0.00 | 0.00 | 0.00 | 99 | 1010.2 |
| 20260906093034 | 24 | 102 | 0.0 | 0.0 | 0.00 | 0.00 | 0.00 | 98 | 1010.0 |
| 20260906092529 | 25 | 85 | 0.0 | 0.0 | 0.00 | 0.00 | 0.00 | 98 | 1010.0 |
| 20260906092024 | 25 | 91 | 0.0 | 0.0 | 0.00 | 0.00 | 0.00 | 98 | 1009.8 |
| 20260906091520 | 25 | 89 | 0.0 | 1.6 | 0.00 | 0.00 | 0.00 | 98 | 1010.0 |
| 20260906091016 | 25 | 79 | 0.0 | 0.0 | 0.00 | 0.00 | 0.00 | 98 | 1010.0 |
| 20260906090516 | 25 | 104 | 0.0 | 0.0 | 0.00 | 0.00 | 0.00 | 97 | 1009.9 |
| 20260906090011 | 25 | 73 | 0.0 | 0.0 | 0.00 | 0.00 | 0.00 | 97 | 1010.1 |
| 20260906085510 | 25 | 92 | 0.0 | 0.0 | 0.00 | 0.00 | 0.00 | 97 | 1009.6 |
| 20260906085010 | 25 | 93 | 0.0 | 0.0 | 0.00 | 0.00 | 0.00 | 96 | 1009.8 |
| 20260906084509 | 25 | 101 | 0.0 | 0.0 | 0.00 | 0.00 | 0.00 | 96 | 1009.9 |
| 20260906084008 | 25 | 65 | 1.6 | 1.6 | 0.00 | 0.00 | 0.00 | 97 | 1009.8 |
| 20260906083504 | 25 | 51 | 3.2 | 3.2 | 0.00 | 0.00 | 0.00 | 98 | 1009.7 |
| 20260906083003 | 25 | 78 | 0.0 | 0.0 | 0.00 | 0.00 | 0.00 | 98 | 1010.0 |
| 20260906082459 | 24 | 70 | 1.6 | 1.6 | 0.00 | 0.00 | 0.00 | 98 | 1009.9 |
| 20260906081954 | 24 | 86 | 0.0 | 0.0 | 0.00 | 0.00 | 0.00 | 99 | 1009.8 |
| 20260906081449 | 24 | 73 | 0.0 | 0.0 | 0.00 | 0.00 | 0.00 | 99 | 1009.7 |
| 20260906080945 | 24 | 81 | 0.0 | 0.0 | 0.00 | 0.00 | 0.00 | 99 | 1009.7 |
| 20260906080443 | 24 | 88 | 0.0 | 0.0 | 0.00 | 0.00 | 0.00 | 99 | 1009.8 |
| 20260906075942 | 23 | 80 | 0.0 | 0.0 | 0.00 | 0.00 | 0.00 | 99 | 1009.7 |
| 20260906075437 | 23 | 76 | 0.0 | 0.0 | 0.00 | 0.00 | 0.00 | 99 | 1009.6 |
| 20260906074932 | 23 | 71 | 0.0 | 0.0 | 0.00 | 0.00 | 0.00 | 99 | 1009.6 |
| 20260906074426 | 23 | 83 | 0.0 | 0.0 | 0.00 | 0.00 | 0.00 | 99 | 1009.5 |
| 20260906073925 | 23 | 72 | 0.0 | 0.0 | 0.00 | 0.00 | 0.00 | 99 | 1009.5 |
| 20260906073420 | 23 | 94 | 0.0 | 0.0 | 0.00 | 0.00 | 0.00 | 99 | 1009.4 |
| 20260906072916 | 23 | 95 | 0.0 | 0.0 | 0.00 | 0.00 | 0.00 | 99 | 1009.5 |
| 20260906072412 | 23 | 82 | 0.0 | 0.0 | 0.00 | 0.00 | 0.00 | 99 | 1009.6 |
| 20260906071908 | 23 | 84 | 0.0 | 0.0 | 0.00 | 0.00 | 0.00 | 99 | 1009.6 |
| 20260906071403 | 23 | 97 | 0.0 | 0.0 | 0.00 | 0.00 | 0.00 | 99 | 1009.6 |
| 20260906070858 | 23 | 97 | 0.0 | 0.0 | 0.00 | 0.00 | 0.00 | 99 | 1009.6 |
| 20260906070354 | 23 | 105 | 0.0 | 0.0 | 0.00 | 0.00 | 0.00 | 99 | 1009.8 |
| 20260906065850 | 23 | 108 | 0.0 | 0.0 | 0.00 | 0.00 | 0.00 | 99 | 1009.6 |
| 20260906065344 | 23 | 98 | 0.0 | 0.0 | 0.00 | 0.00 | 0.00 | 99 | 1009.8 |
| 20260906064840 | 23 | 88 | 0.0 | 0.0 | 0.00 | 0.00 | 0.00 | 99 | 1009.9 |
| 20260906064337 | 23 | 79 | 0.0 | 0.0 | 0.00 | 0.00 | 0.00 | 99 | 1010.0 |
| 20260906063831 | 23 | 75 | 0.0 | 0.0 | 0.00 | 0.00 | 0.00 | 99 | 1009.9 |
| 20260906063327 | 23 | 87 | 0.0 | 0.0 | 0.00 | 0.00 | 0.00 | 99 | 1010.2 |
| 20260906062822 | 23 | 96 | 0.0 | 0.0 | 0.00 | 0.00 | 0.00 | 99 | 1009.9 |
| 20260906062321 | 23 | 80 | 0.0 | 0.0 | 0.00 | 0.00 | 0.00 | 99 | 1010.1 |
| 20260906061816 | 23 | 79 | 0.0 | 0.0 | 0.00 | 0.00 | 0.00 | 98 | 1010.1 |
| 20260906061312 | 23 | 79 | 0.0 | 0.0 | 0.00 | 0.00 | 0.00 | 98 | 1010.2 |
| 20260906060807 | 23 | 83 | 0.0 | 0.0 | 0.00 | 0.00 | 0.00 | 98 | 1009.9 |
| 20260906060305 | 23 | 74 | 0.0 | 0.0 | 0.00 | 0.00 | 0.00 | 98 | 1010.2 |
| 20260906055800 | 23 | 82 | 0.0 | 0.0 | 0.00 | 0.00 | 0.00 | 98 | 1010.1 |
| 20260906055255 | 23 | 94 | 0.0 | 0.0 | 0.00 | 0.00 | 0.00 | 98 | 1010.2 |
| 20260906054750 | 24 | 81 | 0.0 | 0.0 | 0.00 | 0.00 | 0.00 | 98 | 1010.1 |
| 20260906054246 | 24 | 78 | 0.0 | 0.0 | 0.00 | 0.00 | 0.00 | 98 | 1010.0 |
| 20260906053743 | 24 | 83 | 0.0 | 0.0 | 0.00 | 0.00 | 0.00 | 98 | 1010.0 |
| 20260906053238 | 24 | 85 | 0.0 | 0.0 | 0.00 | 0.00 | 0.00 | 98 | 1010.0 |
| 20260906052733 | 24 | 84 | 0.0 | 0.0 | 0.00 | 0.00 | 0.00 | 98 | 1009.9 |
| 20260906052229 | 24 | 81 | 0.0 | 0.0 | 0.00 | 0.00 | 0.00 | 98 | 1009.9 |
| 20260906051726 | 24 | 93 | 0.0 | 0.0 | 0.00 | 0.00 | 0.00 | 98 | 1009.9 |
| 20260906051225 | 24 | 95 | 0.0 | 0.0 | 0.00 | 0.00 | 0.00 | 98 | 1009.7 |
| 20260906050720 | 24 | 82 | 0.0 | 0.0 | 0.00 | 0.00 | 0.00 | 97 | 1009.9 |
| 20260906050215 | 24 | 85 | 0.0 | 0.0 | 0.00 | 0.00 | 0.00 | 97 | 1009.9 |
| 20260906045713 | 24 | 82 | 0.0 | 0.0 | 0.00 | 0.00 | 0.00 | 97 | 1009.9 |
| 20260906045209 | 24 | 77 | 0.0 | 0.0 | 0.00 | 0.00 | 0.00 | 97 | 1009.6 |
| 20260906044705 | 24 | 85 | 0.0 | 0.0 | 0.00 | 0.00 | 0.00 | 97 | 1009.6 |
| 20260906044159 | 25 | 83 | 0.0 | 0.0 | 0.00 | 0.00 | 0.00 | 96 | 1009.7 |
| 20260906043656 | 25 | 83 | 0.0 | 0.0 | 0.00 | 0.00 | 0.00 | 96 | 1009.7 |
| 20260906043151 | 25 | 79 | 0.0 | 0.0 | 0.00 | 0.00 | 0.00 | 96 | 1009.7 |
| 20260906042651 | 25 | 72 | 0.0 | 0.0 | 0.00 | 0.00 | 0.00 | 96 | 1009.6 |
| 20260906042151 | 25 | 78 | 0.0 | 0.0 | 0.00 | 0.00 | 0.00 | 96 | 1009.9 |
| 20260906041647 | 25 | 82 | 0.0 | 0.0 | 0.00 | 0.00 | 0.00 | 95 | 1009.4 |
| 20260906041142 | 25 | 88 | 0.0 | 0.0 | 0.00 | 0.00 | 0.00 | 95 | 1009.7 |
| 20260906040637 | 25 | 89 | 0.0 | 0.0 | 0.00 | 0.00 | 0.00 | 95 | 1009.8 |
| 20260906040133 | 25 | 83 | 0.0 | 0.0 | 0.00 | 0.00 | 0.00 | 94 | 1009.7 |
| 20260906035628 | 25 | 82 | 0.0 | 0.0 | 0.00 | 0.00 | 0.00 | 94 | 1009.7 |
| 20260906035123 | 25 | 83 | 0.0 | 0.0 | 0.00 | 0.00 | 0.00 | 93 | 1009.6 |
| 20260906034623 | 25 | 79 | 0.0 | 0.0 | 0.00 | 0.00 | 0.00 | 93 | 1009.5 |
| 20260906034118 | 25 | 87 | 0.0 | 0.0 | 0.00 | 0.00 | 0.00 | 93 | 1009.4 |
| 20260906033608 | 25 | 99 | 0.0 | 0.0 | 0.00 | 0.00 | 0.00 | 92 | 1009.6 |
| 20260906033102 | 25 | 92 | 0.0 | 0.0 | 0.00 | 0.00 | 0.00 | 92 | 1009.5 |
| 20260906032559 | 25 | 80 | 0.0 | 0.0 | 0.00 | 0.00 | 0.00 | 92 | 1009.3 |
| 20260906032054 | 25 | 99 | 0.0 | 0.0 | 0.00 | 0.00 | 0.00 | 92 | 1009.2 |
| 20260906031549 | 25 | 70 | 0.0 | 0.0 | 0.00 | 0.00 | 0.00 | 92 | 1009.5 |
| 20260906031045 | 25 | 76 | 0.0 | 0.0 | 0.00 | 0.00 | 0.00 | 92 | 1009.5 |
| 20260906030544 | 25 | 74 | 0.0 | 0.0 | 0.00 | 0.00 | 0.00 | 92 | 1009.2 |
| 20260906030043 | 25 | 80 | 0.0 | 0.0 | 0.00 | 0.00 | 0.00 | 91 | 1009.3 |
| 20260906025538 | 25 | 90 | 0.0 | 0.0 | 0.00 | 0.00 | 0.00 | 91 | 1009.3 |
| 20260906025036 | 26 | 83 | 0.0 | 0.0 | 0.00 | 0.00 | 0.00 | 91 | 1009.1 |
| 20260906024531 | 26 | 74 | 0.0 | 0.0 | 0.00 | 0.00 | 0.00 | 90 | 1009.1 |
| 20260906024025 | 26 | 66 | 0.0 | 0.0 | 0.00 | 0.00 | 0.00 | 90 | 1009.1 |
| 20260906023521 | 26 | 79 | 0.0 | 0.0 | 0.00 | 0.00 | 0.00 | 89 | 1008.9 |
| 20260906023016 | 26 | 79 | 0.0 | 0.0 | 0.00 | 0.00 | 0.00 | 89 | 1008.8 |
| 20260906022511 | 26 | 91 | 0.0 | 0.0 | 0.00 | 0.00 | 0.00 | 88 | 1008.8 |
| 20260906022007 | 26 | 82 | 0.0 | 0.0 | 0.00 | 0.00 | 0.00 | 88 | 1008.6 |
| 20260906021503 | 26 | 81 | 0.0 | 0.0 | 0.00 | 0.00 | 0.00 | 87 | 1008.8 |
| 20260906020957 | 26 | 75 | 0.0 | 0.0 | 0.00 | 0.00 | 0.00 | 86 | 1008.8 |
| 20260906020450 | 26 | 92 | 0.0 | 0.0 | 0.00 | 0.00 | 0.00 | 86 | 1008.6 |
| 20260906015949 | 27 | 76 | 0.0 | 0.0 | 0.00 | 0.00 | 0.00 | 86 | 1008.3 |
| 20260906015444 | 27 | 86 | 0.0 | 0.0 | 0.00 | 0.00 | 0.00 | 85 | 1008.2 |
| 20260906014943 | 27 | 78 | 0.0 | 0.0 | 0.00 | 0.00 | 0.00 | 84 | 1008.1 |
| 20260906014438 | 27 | 73 | 0.0 | 0.0 | 0.00 | 0.00 | 0.00 | 84 | 1008.2 |
| 20260906013935 | 27 | 89 | 0.0 | 0.0 | 0.00 | 0.00 | 0.00 | 83 | 1008.0 |
| 20260906013430 | 27 | 81 | 0.0 | 0.0 | 0.00 | 0.00 | 0.00 | 82 | 1008.1 |
| 20260906012926 | 27 | 112 | 0.0 | 0.0 | 0.00 | 0.00 | 0.00 | 82 | 1008.0 |
| 20260906012426 | 27 | 102 | 0.0 | 0.0 | 0.00 | 0.00 | 0.00 | 82 | 1007.9 |
| 20260906011925 | 27 | 82 | 0.0 | 0.0 | 0.00 | 0.00 | 0.00 | 80 | 1007.8 |
| 20260906011420 | 28 | 83 | 0.0 | 0.0 | 0.00 | 0.00 | 0.00 | 78 | 1007.9 |
| 20260906010915 | 28 | 80 | 0.0 | 0.0 | 0.00 | 0.00 | 0.00 | 77 | 1007.8 |
| 20260906010411 | 28 | 81 | 0.0 | 0.0 | 0.00 | 0.00 | 0.00 | 76 | 1007.5 |
| 20260906005907 | 28 | 81 | 0.0 | 0.0 | 0.00 | 0.00 | 0.00 | 74 | 1007.9 |
| 20260906005406 | 29 | 80 | 0.0 | 0.0 | 0.00 | 0.00 | 0.00 | 73 | 1007.6 |
| 20260906004904 | 30 | 80 | 0.0 | 0.0 | 0.00 | 0.00 | 0.00 | 72 | 1007.5 |
| 20260906004359 | 30 | 80 | 0.0 | 0.0 | 0.00 | 0.00 | 0.00 | 70 | 1007.5 |
| 20260906003854 | 30 | 78 | 0.0 | 0.0 | 0.00 | 0.00 | 0.00 | 70 | 1007.3 |
| 20260906003349 | 30 | 73 | 0.0 | 0.0 | 0.00 | 0.00 | 0.00 | 68 | 1007.5 |
| 20260906002845 | 31 | 64 | 0.0 | 0.0 | 0.00 | 0.00 | 0.00 | 67 | 1007.5 |
| 20260906002344 | 31 | 61 | 0.0 | 0.0 | 0.00 | 0.00 | 0.00 | 66 | 1007.6 |
| 20260906001840 | 31 | 66 | 0.0 | 0.0 | 0.00 | 0.00 | 0.00 | 65 | 1007.7 |
| 20260906001335 | 31 | 64 | 0.0 | 0.0 | 0.00 | 0.00 | 0.00 | 64 | 1007.6 |
| 20260906000830 | 32 | 58 | 0.0 | 1.6 | 0.00 | 0.00 | 0.00 | 64 | 1007.5 |
| 20260906000326 | 32 | 58 | 0.0 | 1.6 | 0.00 | 0.00 | 0.00 | 63 | 1007.5 |
| 20260905235826 | 32 | 81 | 0.0 | 0.0 | 0.00 | 0.00 | 0.00 | 60 | 1007.6 |
| 20260905235325 | 32 | 77 | 0.0 | 0.0 | 0.00 | 0.00 | 0.00 | 59 | 1007.5 |
| 20260905234821 | 33 | 77 | 0.0 | 0.0 | 0.00 | 0.00 | 0.00 | 60 | 1007.6 |
| 20260905234316 | 33 | 87 | 0.0 | 0.0 | 0.00 | 0.00 | 0.00 | 58 | 1007.7 |
| 20260905233811 | 33 | 82 | 0.0 | 0.0 | 0.00 | 0.00 | 0.00 | 56 | 1007.8 |
| 20260905233306 | 34 | 93 | 0.0 | 0.0 | 0.00 | 0.00 | 0.00 | 54 | 1007.9 |
| 20260905232805 | 35 | 39 | 1.6 | 1.6 | 0.00 | 0.00 | 0.00 | 52 | 1007.8 |
| 20260905232305 | 35 | 52 | 1.6 | 1.6 | 0.00 | 0.00 | 0.00 | 50 | 1007.8 |
| 20260905231757 | 35 | 96 | 1.6 | 1.6 | 0.00 | 0.00 | 0.00 | 48 | 1007.7 |
| 20260905231252 | 35 | 66 | 0.0 | 0.0 | 0.00 | 0.00 | 0.00 | 47 | 1007.5 |
| 20260905230748 | 36 | 51 | 1.6 | 1.6 | 0.00 | 0.00 | 0.00 | 47 | 1007.5 |
| 20260905230246 | 36 | 101 | 0.0 | 0.0 | 0.00 | 0.00 | 0.00 | 47 | 1007.6 |
| 20260905225746 | 36 | 102 | 1.6 | 1.6 | 0.00 | 0.00 | 0.00 | 46 | 1007.7 |
| 20260905225241 | 36 | 66 | 0.0 | 1.6 | 0.00 | 0.00 | 0.00 | 45 | 1007.6 |
| 20260905224740 | 36 | 106 | 0.0 | 1.6 | 0.00 | 0.00 | 0.00 | 44 | 1007.6 |
| 20260905224236 | 36 | 71 | 1.6 | 1.6 | 0.00 | 0.00 | 0.00 | 43 | 1007.7 |
| 20260905223731 | 36 | 334 | 1.6 | 3.2 | 0.00 | 0.00 | 0.00 | 44 | 1007.6 |
| 20260905223228 | 37 | 187 | 4.8 | 4.8 | 0.00 | 0.00 | 0.00 | 42 | 1007.7 |
| 20260905222724 | 36 | 93 | 0.0 | 0.0 | 0.00 | 0.00 | 0.00 | 44 | 1007.9 |
| 20260905222223 | 37 | 177 | 1.6 | 1.6 | 0.00 | 0.00 | 0.00 | 45 | 1007.6 |
| 20260905221719 | 36 | 79 | 1.6 | 1.6 | 0.00 | 0.00 | 0.00 | 45 | 1007.5 |
| 20260905221216 | 37 | 75 | 1.6 | 3.2 | 0.00 | 0.00 | 0.00 | 44 | 1007.6 |
| 20260905220711 | 37 | 120 | 1.6 | 1.6 | 0.00 | 0.00 | 0.00 | 42 | 1007.8 |
| 20260905220207 | 37 | 52 | 1.6 | 1.6 | 0.00 | 0.00 | 0.00 | 41 | 1007.7 |
| 20260905215706 | 38 | 4 | 1.6 | 3.2 | 0.00 | 0.00 | 0.00 | 42 | 1007.8 |
| 20260905215202 | 38 | 251 | 1.6 | 1.6 | 0.00 | 0.00 | 0.00 | 42 | 1007.7 |
| 20260905214658 | 38 | 278 | 1.6 | 1.6 | 0.00 | 0.00 | 0.00 | 43 | 1007.8 |
| 20260905214153 | 38 | 37 | 1.6 | 1.6 | 0.00 | 0.00 | 0.00 | 42 | 1007.6 |
| 20260905213648 | 38 | 87 | 1.6 | 3.2 | 0.00 | 0.00 | 0.00 | 43 | 1007.5 |
| 20260905213144 | 38 | 67 | 1.6 | 3.2 | 0.00 | 0.00 | 0.00 | 42 | 1007.7 |
| 20260905212639 | 38 | 301 | 3.2 | 3.2 | 0.00 | 0.00 | 0.00 | 42 | 1007.4 |
| 20260905212138 | 38 | 317 | 4.8 | 4.8 | 0.00 | 0.00 | 0.00 | 41 | 1007.8 |
| 20260905211633 | 38 | 272 | 6.4 | 8.0 | 0.00 | 0.00 | 0.00 | 41 | 1007.5 |
| 20260905211128 | 39 | 193 | 3.2 | 4.8 | 0.00 | 0.00 | 0.00 | 39 | 1007.6 |
| 20260905210625 | 40 | 247 | 1.6 | 3.2 | 0.00 | 0.00 | 0.00 | 38 | 1007.6 |
| 20260905210119 | 39 | 54 | 1.6 | 1.6 | 0.00 | 0.00 | 0.00 | 37 | 1007.7 |
| 20260905205618 | 39 | 318 | 1.6 | 1.6 | 0.00 | 0.00 | 0.00 | 39 | 1007.8 |
| 20260905205112 | 38 | 122 | 1.6 | 3.2 | 0.00 | 0.00 | 0.00 | 39 | 1007.9 |
| 20260905204612 | 38 | 309 | 4.8 | 8.0 | 0.00 | 0.00 | 0.00 | 43 | 1008.0 |
| 20260905204107 | 37 | 48 | 3.2 | 3.2 | 0.00 | 0.00 | 0.00 | 45 | 1008.2 |
| 20260905203602 | 37 | 283 | 3.2 | 8.0 | 0.00 | 0.00 | 0.00 | 44 | 1008.0 |
| 20260905203057 | 38 | 23 | 3.2 | 3.2 | 0.00 | 0.00 | 0.00 | 41 | 1007.9 |
| 20260905202552 | 38 | 201 | 1.6 | 1.6 | 0.00 | 0.00 | 0.00 | 36 | 1007.9 |
| 20260905202047 | 40 | 69 | 3.2 | 3.2 | 0.00 | 0.00 | 0.00 | 37 | 1007.8 |
| 20260905201538 | 40 | 63 | 8.0 | 11.3 | 0.00 | 0.00 | 0.00 | 36 | 1008.0 |
| 20260905201037 | 40 | 60 | 3.2 | 3.2 | 0.00 | 0.00 | 0.00 | 36 | 1008.0 |
| 20260905200532 | 38 | 55 | 4.8 | 4.8 | 0.00 | 0.00 | 0.00 | 37 | 1008.1 |
| 20260905200032 | 38 | 22 | 1.6 | 1.6 | 0.00 | 0.00 | 0.00 | 41 | 1008.3 |
| 20260905195526 | 39 | 79 | 0.0 | 0.0 | 0.00 | 0.00 | 0.00 | 40 | 1008.1 |
| 20260905195021 | 38 | 127 | 1.6 | 1.6 | 0.00 | 0.00 | 0.00 | 39 | 1008.3 |
| 20260905194515 | 38 | 299 | 3.2 | 3.2 | 0.00 | 0.00 | 0.00 | 39 | 1008.3 |
| 20260905194010 | 38 | 73 | 1.6 | 3.2 | 0.00 | 0.00 | 0.00 | 38 | 1008.3 |
| 20260905193510 | 40 | 225 | 4.8 | 4.8 | 0.00 | 0.00 | 0.00 | 38 | 1008.4 |
| 20260905193005 | 40 | 57 | 4.8 | 4.8 | 0.00 | 0.00 | 0.00 | 37 | 1009.0 |
| 20260905192500 | 40 | 43 | 1.6 | 3.2 | 0.00 | 0.00 | 0.00 | 38 | 1008.5 |
| 20260905191956 | 40 | 69 | 3.2 | 4.8 | 0.00 | 0.00 | 0.00 | 37 | 1008.6 |
| 20260905191450 | 40 | 137 | 1.6 | 1.6 | 0.00 | 0.00 | 0.00 | 37 | 1008.8 |
| 20260905190949 | 40 | 181 | 0.0 | 0.0 | 0.00 | 0.00 | 0.00 | 37 | 1008.8 |
| 20260905190447 | 39 | 81 | 1.6 | 1.6 | 0.00 | 0.00 | 0.00 | 37 | 1008.9 |
| 20260905185946 | 40 | 106 | 4.8 | 8.0 | 0.00 | 0.00 | 0.00 | 36 | 1009.0 |
| 20260905185441 | 40 | 57 | 0.0 | 1.6 | 0.00 | 0.00 | 0.00 | 39 | 1009.1 |
| 20260905184940 | 40 | 57 | 3.2 | 3.2 | 0.00 | 0.00 | 0.00 | 37 | 1009.1 |
| 20260905184439 | 40 | 86 | 3.2 | 3.2 | 0.00 | 0.00 | 0.00 | 37 | 1009.1 |
| 20260905183938 | 40 | 127 | 1.6 | 1.6 | 0.00 | 0.00 | 0.00 | 37 | 1009.3 |
| 20260905183433 | 40 | 82 | 1.6 | 1.6 | 0.00 | 0.00 | 0.00 | 37 | 1009.4 |
| 20260905182929 | 39 | 308 | 3.2 | 4.8 | 0.00 | 0.00 | 0.00 | 40 | 1009.4 |
| 20260905182428 | 38 | 82 | 1.6 | 1.6 | 0.00 | 0.00 | 0.00 | 40 | 1009.3 |
| 20260905181924 | 38 | 96 | 1.6 | 1.6 | 0.00 | 0.00 | 0.00 | 41 | 1009.6 |
| 20260905181423 | 40 | 113 | 3.2 | 3.2 | 0.00 | 0.00 | 0.00 | 39 | 1009.3 |
| 20260905180923 | 39 | 84 | 4.8 | 4.8 | 0.00 | 0.00 | 0.00 | 40 | 1009.5 |
| 20260905180418 | 38 | 147 | 4.8 | 4.8 | 0.00 | 0.00 | 0.00 | 42 | 1009.5 |
| 20260905175912 | 37 | 103 | 3.2 | 3.2 | 0.00 | 0.00 | 0.00 | 43 | 1009.5 |
| 20260905175412 | 38 | 26 | 1.6 | 1.6 | 0.00 | 0.00 | 0.00 | 42 | 1009.7 |
| 20260905174907 | 39 | 87 | 0.0 | 1.6 | 0.00 | 0.00 | 0.00 | 41 | 1009.4 |
| 20260905174403 | 39 | 338 | 4.8 | 4.8 | 0.00 | 0.00 | 0.00 | 40 | 1009.6 |
| 20260905173858 | 39 | 341 | 4.8 | 4.8 | 0.00 | 0.00 | 0.00 | 41 | 1009.5 |
| 20260905173355 | 38 | 109 | 1.6 | 3.2 | 0.00 | 0.00 | 0.00 | 40 | 1009.8 |
| 20260905172849 | 38 | 83 | 0.0 | 1.6 | 0.00 | 0.00 | 0.00 | 42 | 1009.8 |
| 20260905172347 | 38 | 17 | 1.6 | 3.2 | 0.00 | 0.00 | 0.00 | 42 | 1009.8 |
| 20260905171844 | 38 | 110 | 1.6 | 1.6 | 0.00 | 0.00 | 0.00 | 44 | 1009.9 |
| 20260905171340 | 38 | 79 | 1.6 | 3.2 | 0.00 | 0.00 | 0.00 | 43 | 1010.1 |
| 20260905170836 | 38 | 183 | 3.2 | 3.2 | 0.00 | 0.00 | 0.00 | 50 | 1009.9 |
| 20260905170332 | 38 | 188 | 6.4 | 8.0 | 0.00 | 0.00 | 0.00 | 45 | 1010.0 |
| 20260905165831 | 37 | 190 | 6.4 | 9.7 | 0.00 | 0.00 | 0.00 | 45 | 1010.2 |
| 20260905165327 | 37 | 66 | 1.6 | 1.6 | 0.00 | 0.00 | 0.00 | 45 | 1010.2 |
| 20260905164826 | 37 | 45 | 3.2 | 3.2 | 0.00 | 0.00 | 0.00 | 46 | 1010.5 |
| 20260905164321 | 37 | 250 | 1.6 | 3.2 | 0.00 | 0.00 | 0.00 | 47 | 1010.4 |
| 20260905163817 | 37 | 187 | 1.6 | 1.6 | 0.00 | 0.00 | 0.00 | 53 | 1010.4 |
| 20260905163313 | 37 | 194 | 6.4 | 8.0 | 0.00 | 0.00 | 0.00 | 48 | 1010.5 |
| 20260905162809 | 37 | 32 | 6.4 | 9.7 | 0.00 | 0.00 | 0.00 | 47 | 1010.5 |
| 20260905162305 | 37 | 73 | 1.6 | 1.6 | 0.00 | 0.00 | 0.00 | 49 | 1010.4 |
| 20260905161757 | 36 | 67 | 3.2 | 3.2 | 0.00 | 0.00 | 0.00 | 50 | 1010.5 |
| 20260905161256 | 36 | 94 | 1.6 | 3.2 | 0.00 | 0.00 | 0.00 | 49 | 1010.4 |
| 20260905160755 | 36 | 130 | 3.2 | 3.2 | 0.00 | 0.00 | 0.00 | 51 | 1010.4 |
| 20260905160249 | 36 | 66 | 3.2 | 3.2 | 0.00 | 0.00 | 0.00 | 50 | 1010.5 |
| 20260905155744 | 35 | 233 | 1.6 | 3.2 | 0.00 | 0.00 | 0.00 | 51 | 1010.5 |
| 20260905155243 | 35 | 76 | 1.6 | 1.6 | 0.00 | 0.00 | 0.00 | 53 | 1010.5 |
| 20260905154737 | 35 | 120 | 1.6 | 3.2 | 0.00 | 0.00 | 0.00 | 54 | 1010.5 |
| 20260905154233 | 35 | 50 | 3.2 | 3.2 | 0.00 | 0.00 | 0.00 | 54 | 1010.6 |
| 20260905153728 | 35 | 10 | 4.8 | 4.8 | 0.00 | 0.00 | 0.00 | 55 | 1010.5 |
| 20260905153224 | 34 | 92 | 1.6 | 3.2 | 0.00 | 0.00 | 0.00 | 55 | 1010.6 |
| 20260905152719 | 33 | 69 | 1.6 | 1.6 | 0.00 | 0.00 | 0.00 | 59 | 1010.7 |
| 20260905152219 | 33 | 108 | 1.6 | 1.6 | 0.00 | 0.00 | 0.00 | 58 | 1010.7 |
| 20260905151713 | 33 | 224 | 4.8 | 8.0 | 0.00 | 0.00 | 0.00 | 57 | 1010.6 |
| 20260905151209 | 33 | 15 | 3.2 | 3.2 | 0.00 | 0.00 | 0.00 | 60 | 1010.7 |
| 20260905150704 | 32 | 74 | 3.2 | 3.2 | 0.00 | 0.00 | 0.00 | 61 | 1010.5 |
| 20260905150203 | 32 | 37 | 0.0 | 1.6 | 0.00 | 0.00 | 0.00 | 68 | 1010.5 |